Time;durP1;ratioP1;P1;durP2;ratioP2;P2;SDS_P1;SDS_P2;PMS_P1;PMS_P2;Temp;Humidity;BMP_temperature;BMP_pressure;BME280_temperature;BME280_humidity;BME280_pressure;Samples;Min_cycle;Max_cycle;Signal;HPM_P1;HPM_P2
2022/08/26 00:04:20;;;;;;;;;;;;;;;22.07;60.49609;101678.5;;;;-75
2022/08/26 00:09:20;;;;;;;;;;;;;;;22.05;60.63086;101676.9;;;;-76
2022/08/26 00:14:20;;;;;;;;;;;;;;;22.02;60.59277;101674.7;;;;-75
2022/08/26 00:19:21;;;;;;;;;;;;;;;21.98;60.23438;101681.5;;;;-75
2022/08/26 00:20:00;;;;;;;6.5;1.2;;;;;;;;;;;;;-74
2022/08/26 00:24:20;;;;;;;;;;;;;;;21.95;60.33203;101679.9;;;;-73
2022/08/26 00:29:20;;;;;;;;;;;;;;;21.92;60.31641;101672.5;;;;-74
2022/08/26 00:34:20;;;;;;;;;;;;;;;21.88;60.64355;101679.6;;;;-75
2022/08/26 00:39:21;;;;;;;;;;;;;;;21.85;60.55859;101683.9;;;;-75
2022/08/26 00:44:21;;;;;;;;;;;;;;;21.82;60.61133;101682.3;;;;-76
2022/08/26 00:49:24;;;;;;;;;;;;;;;21.78;60.99316;101675.3;;;;-76
2022/08/26 00:50:05;;;;;;;5.2;0.8;;;;;;;;;;;;;-74
2022/08/26 00:54:22;;;;;;;;;;;;;;;21.78;60.86816;101680.8;;;;-75
2022/08/26 00:59:20;;;;;;;;;;;;;;;21.73;60.81738;101687.1;;;;-75
2022/08/26 01:04:21;;;;;;;;;;;;;;;21.7;60.9834;101691.6;;;;-74
2022/08/26 01:09:20;;;;;;;;;;;;;;;21.68;61.13965;101693.3;;;;-74
2022/08/26 01:14:22;;;;;;;;;;;;;;;21.64;61.19141;101692;;;;-74
2022/08/26 01:19:24;;;;;;;;;;;;;;;21.62;61.10938;101690.7;;;;-75
2022/08/26 01:20:11;;;;;;;3;0.7;;;;;;;;;;;;;-75
2022/08/26 01:24:21;;;;;;;;;;;;;;;21.61;61.06152;101677.7;;;;-74
2022/08/26 01:29:22;;;;;;;;;;;;;;;21.59;60.87793;101675.1;;;;-74
2022/08/26 01:34:22;;;;;;;;;;;;;;;21.56;60.67871;101678.5;;;;-73
2022/08/26 01:39:20;;;;;;;;;;;;;;;21.54;60.73438;101681.9;;;;-75
2022/08/26 01:44:22;;;;;;;;;;;;;;;21.52;60.65039;101680;;;;-75
2022/08/26 01:49:22;;;;;;;;;;;;;;;21.51;60.56934;101683.5;;;;-74
2022/08/26 01:50:12;;;;;;;2.2;0.6;;;;;;;;;;;;;-76
2022/08/26 01:54:20;;;;;;;;;;;;;;;21.48;60.61133;101697.9;;;;-76
2022/08/26 01:59:21;;;;;;;;;;;;;;;21.48;60.51953;101699.8;;;;-75
2022/08/26 02:04:23;;;;;;;;;;;;;;;21.46;60.60938;101695.2;;;;-75
2022/08/26 02:09:22;;;;;;;;;;;;;;;21.46;60.49512;101698.9;;;;-75
2022/08/26 02:14:21;;;;;;;;;;;;;;;21.44;60.52637;101697.4;;;;-74
2022/08/26 02:19:21;;;;;;;;;;;;;;;21.44;60.55957;101694.6;;;;-74
2022/08/26 02:20:14;;;;;;;4.7;0.7;;;;;;;;;;;;;-75
2022/08/26 02:24:22;;;;;;;;;;;;;;;21.43;60.47852;101695.7;;;;-76
2022/08/26 02:29:23;;;;;;;;;;;;;;;21.42;60.51172;101694.8;;;;-75
2022/08/26 02:34:30;;;;;;;;;;;;;;;21.41;60.68164;101697.9;;;;-75
2022/08/26 02:39:20;;;;;;;;;;;;;;;21.41;60.7041;101700;;;;-74
2022/08/26 02:44:20;;;;;;;;;;;;;;;21.4;60.83984;101702;;;;-76
2022/08/26 02:49:20;;;;;;;;;;;;;;;21.38;61.06543;101702;;;;-76
2022/08/26 02:50:15;;;;;;;3.3;0.7;;;;;;;;;;;;;-75
2022/08/26 02:54:20;;;;;;;;;;;;;;;21.35;61.40332;101691.5;;;;-75
2022/08/26 02:59:20;;;;;;;;;;;;;;;21.32;61.3418;101694.9;;;;-76
2022/08/26 03:04:20;;;;;;;;;;;;;;;21.3;61.37305;101697.3;;;;-76
2022/08/26 03:09:21;;;;;;;;;;;;;;;21.26;61.23242;101689.9;;;;-76
2022/08/26 03:14:20;;;;;;;;;;;;;;;21.25;61.09277;101696.1;;;;-74
2022/08/26 03:19:20;;;;;;;;;;;;;;;21.21;61.2373;101696.9;;;;-75
2022/08/26 03:20:19;;;;;;;3.3;0.6;;;;;;;;;;;;;-75
2022/08/26 03:24:20;;;;;;;;;;;;;;;21.18;61.02734;101693.5;;;;-74
2022/08/26 03:34:20;;;;;;;;;;;;;;;21.14;60.79297;101690.8;;;;-75
2022/08/26 03:39:20;;;;;;;;;;;;;;;21.12;60.76758;101695.4;;;;-74
2022/08/26 03:44:20;;;;;;;;;;;;;;;21.11;60.78906;101694.7;;;;-75
2022/08/26 03:49:20;;;;;;;;;;;;;;;21.09;60.69531;101685.4;;;;-76
2022/08/26 03:50:22;;;;;;;2.6;0.6;;;;;;;;;;;;;-76
2022/08/26 03:54:20;;;;;;;;;;;;;;;21.06;60.63379;101690.8;;;;-74
2022/08/26 03:59:20;;;;;;;;;;;;;;;21.04;60.39258;101688.6;;;;-76
2022/08/26 04:04:20;;;;;;;;;;;;;;;21.01;60.43359;101688.4;;;;-76
2022/08/26 04:09:22;;;;;;;;;;;;;;;20.99;60.56738;101693.4;;;;-76
2022/08/26 04:14:22;;;;;;;;;;;;;;;20.97;60.47461;101686.5;;;;-76
2022/08/26 04:19:23;;;;;;;;;;;;;;;20.96;60.60938;101684.5;;;;-76
2022/08/26 04:20:24;;;;;;;3.2;0.7;;;;;;;;;;;;;-75
2022/08/26 04:24:20;;;;;;;;;;;;;;;20.95;60.52734;101678.8;;;;-75
2022/08/26 04:29:22;;;;;;;;;;;;;;;20.93;60.63867;101684.8;;;;-75
2022/08/26 04:34:20;;;;;;;;;;;;;;;20.92;60.52344;101685.7;;;;-76
2022/08/26 04:39:20;;;;;;;;;;;;;;;20.9;60.58887;101682.8;;;;-75
2022/08/26 04:44:20;;;;;;;;;;;;;;;20.89;60.67969;101688.8;;;;-75
2022/08/26 04:49:21;;;;;;;;;;;;;;;20.89;60.61035;101694.5;;;;-76
2022/08/26 04:50:28;;;;;;;4.4;0.9;;;;;;;;;;;;;-76
2022/08/26 04:54:20;;;;;;;;;;;;;;;20.87;60.83691;101694.5;;;;-75
2022/08/26 04:59:20;;;;;;;;;;;;;;;20.86;60.83594;101693.2;;;;-75
2022/08/26 05:04:21;;;;;;;;;;;;;;;20.85;60.85742;101701.5;;;;-75
2022/08/26 05:09:21;;;;;;;;;;;;;;;20.85;60.76563;101700.2;;;;-75
2022/08/26 05:14:21;;;;;;;;;;;;;;;20.85;60.99414;101697.5;;;;-75
2022/08/26 05:19:20;;;;;;;;;;;;;;;20.84;61.02637;101699.6;;;;-75
2022/08/26 05:20:31;;;;;;;3.5;0.8;;;;;;;;;;;;;-76
2022/08/26 05:24:20;;;;;;;;;;;;;;;20.83;60.86426;101699.8;;;;-76
2022/08/26 05:29:20;;;;;;;;;;;;;;;20.85;61.03809;101709.7;;;;-75
2022/08/26 05:34:20;;;;;;;;;;;;;;;20.84;61.01563;101709.9;;;;-75
2022/08/26 05:39:20;;;;;;;;;;;;;;;20.87;60.99609;101713.4;;;;-74
2022/08/26 05:44:20;;;;;;;;;;;;;;;20.89;61.02148;101722.8;;;;-75
2022/08/26 05:49:20;;;;;;;;;;;;;;;20.9;60.94336;101725;;;;-76
2022/08/26 05:50:33;;;;;;;3.6;0.7;;;;;;;;;;;;;-73
2022/08/26 05:54:20;;;;;;;;;;;;;;;20.9;61.0459;101733.5;;;;-75
2022/08/26 05:59:20;;;;;;;;;;;;;;;20.91;61.08203;101737.2;;;;-75
2022/08/26 06:04:20;;;;;;;;;;;;;;;20.93;61.00391;101739.5;;;;-74
2022/08/26 06:09:20;;;;;;;;;;;;;;;20.94;61.24512;101743.3;;;;-76
2022/08/26 06:14:20;;;;;;;;;;;;;;;20.97;61.31641;101746.9;;;;-73
2022/08/26 06:19:20;;;;;;;;;;;;;;;20.99;61.27441;101749.1;;;;-75
2022/08/26 06:20:42;;;;;;;4.4;0.7;;;;;;;;;;;;;-75
2022/08/26 06:29:21;;;;;;;;;;;;;;;21.07;61.19434;101756.9;;;;-74
2022/08/26 06:34:20;;;;;;;;;;;;;;;21.12;61.04102;101763.7;;;;-75
2022/08/26 06:39:22;;;;;;;;;;;;;;;21.15;61.05664;101764.1;;;;-77
2022/08/26 06:44:20;;;;;;;;;;;;;;;21.18;61.15234;101768.8;;;;-75
2022/08/26 06:49:20;;;;;;;;;;;;;;;21.25;61.27637;101771.8;;;;-74
2022/08/26 06:50:38;;;;;;;5.5;0.7;;;;;;;;;;;;;-75
2022/08/26 06:54:20;;;;;;;;;;;;;;;21.32;61.08008;101769.8;;;;-75
2022/08/26 06:59:20;;;;;;;;;;;;;;;21.39;61.08984;101771;;;;-75
2022/08/26 07:04:20;;;;;;;;;;;;;;;21.46;60.84863;101767.8;;;;-75
2022/08/26 07:09:20;;;;;;;;;;;;;;;21.53;60.70898;101764.1;;;;-76
2022/08/26 07:14:20;;;;;;;;;;;;;;;21.6;60.58105;101771.3;;;;-76
2022/08/26 07:19:20;;;;;;;;;;;;;;;21.65;60.37207;101776.8;;;;-76
2022/08/26 07:20:43;;;;;;;3.5;0.7;;;;;;;;;;;;;-76
2022/08/26 07:24:20;;;;;;;;;;;;;;;21.7;60.33301;101780.2;;;;-74
2022/08/26 07:29:20;;;;;;;;;;;;;;;21.76;60.16992;101797.4;;;;-75
2022/08/26 07:34:21;;;;;;;;;;;;;;;21.82;59.96094;101805.1;;;;-73
2022/08/26 07:39:20;;;;;;;;;;;;;;;21.88;59.81934;101808.3;;;;-77
2022/08/26 07:44:20;;;;;;;;;;;;;;;21.98;59.70703;101812.5;;;;-74
2022/08/26 07:49:20;;;;;;;;;;;;;;;22.07;59.57227;101812.9;;;;-74
2022/08/26 07:50:44;;;;;;;4.7;0.7;;;;;;;;;;;;;-76
2022/08/26 07:54:20;;;;;;;;;;;;;;;22.17;59.34375;101819.6;;;;-75
2022/08/26 07:59:20;;;;;;;;;;;;;;;22.26;59.15039;101819.3;;;;-76
2022/08/26 08:04:21;;;;;;;;;;;;;;;22.33;58.9668;101817.5;;;;-74
2022/08/26 08:09:20;;;;;;;;;;;;;;;22.47;58.70898;101818.9;;;;-75
2022/08/26 08:14:21;;;;;;;;;;;;;;;22.59;58.39355;101824.7;;;;-76
2022/08/26 08:19:20;;;;;;;;;;;;;;;22.71;58.09863;101827.5;;;;-74
2022/08/26 08:20:47;;;;;;;2;0.5;;;;;;;;;;;;;-75
2022/08/26 08:24:20;;;;;;;;;;;;;;;22.82;57.80469;101824.1;;;;-75
2022/08/26 08:29:20;;;;;;;;;;;;;;;22.96;57.57129;101821.5;;;;-74
2022/08/26 08:34:20;;;;;;;;;;;;;;;23.15;57.26172;101825.3;;;;-75
2022/08/26 08:39:20;;;;;;;;;;;;;;;23.3;56.90332;101835.4;;;;-73
2022/08/26 08:44:21;;;;;;;;;;;;;;;23.41;56.59473;101844;;;;-74
2022/08/26 08:49:20;;;;;;;;;;;;;;;23.49;56.34082;101832.3;;;;-74
2022/08/26 08:50:52;;;;;;;2.8;0.6;;;;;;;;;;;;;-75
2022/08/26 08:54:20;;;;;;;;;;;;;;;23.63;56.11816;101830.3;;;;-76
2022/08/26 08:59:21;;;;;;;;;;;;;;;23.83;55.63672;101831.3;;;;-75
2022/08/26 09:04:29;;;;;;;;;;;;;;;23.95;55.1123;101830.1;;;;-75
2022/08/26 09:09:27;;;;;;;;;;;;;;;24.03;54.75488;101835.7;;;;-75
2022/08/26 09:14:20;;;;;;;;;;;;;;;24.13;54.52441;101838.1;;;;-74
2022/08/26 09:19:26;;;;;;;;;;;;;;;24.19;54.24414;101845.5;;;;-75
2022/08/26 09:20:57;;;;;;;4.8;0.7;;;;;;;;;;;;;-76
2022/08/26 09:24:20;;;;;;;;;;;;;;;24.17;53.97754;101854.5;;;;-74
2022/08/26 09:29:27;;;;;;;;;;;;;;;24.16;53.89648;101857.7;;;;-75
2022/08/26 09:34:21;;;;;;;;;;;;;;;24.15;53.87305;101853.9;;;;-73
2022/08/26 09:39:35;;;;;;;;;;;;;;;24.2;53.77441;101844.9;;;;-76
2022/08/26 09:44:23;;;;;;;;;;;;;;;24.28;53.6123;101832;;;;-75
2022/08/26 09:49:28;;;;;;;;;;;;;;;24.43;53.43359;101829.1;;;;-77
2022/08/26 09:51:00;;;;;;;2.6;0.5;;;;;;;;;;;;;-75
2022/08/26 09:54:26;;;;;;;;;;;;;;;24.62;53.12109;101851.3;;;;-76
2022/08/26 09:59:32;;;;;;;;;;;;;;;24.71;52.70703;101871.2;;;;-75
2022/08/26 10:04:23;;;;;;;;;;;;;;;24.74;52.44531;101857.7;;;;-77
2022/08/26 10:09:21;;;;;;;;;;;;;;;24.73;52.38672;101842.4;;;;-75
2022/08/26 10:14:23;;;;;;;;;;;;;;;24.74;52.36426;101843;;;;-75
2022/08/26 10:19:23;;;;;;;;;;;;;;;24.76;52.27441;101840.3;;;;-75
2022/08/26 10:21:05;;;;;;;4.7;0.8;;;;;;;;;;;;;-76
2022/08/26 10:24:24;;;;;;;;;;;;;;;24.82;52.14258;101839;;;;-74
2022/08/26 10:29:23;;;;;;;;;;;;;;;24.86;52.02148;101847.2;;;;-74
2022/08/26 10:34:20;;;;;;;;;;;;;;;24.9;51.80664;101842.1;;;;-76
2022/08/26 10:39:22;;;;;;;;;;;;;;;24.87;51.70996;101841.1;;;;-74
2022/08/26 10:44:21;;;;;;;;;;;;;;;24.87;51.64063;101840.6;;;;-76
2022/08/26 10:49:20;;;;;;;;;;;;;;;24.87;51.65332;101839.1;;;;-75
2022/08/26 10:51:05;;;;;;;3.8;0.8;;;;;;;;;;;;;-75
2022/08/26 10:54:24;;;;;;;;;;;;;;;24.91;51.56543;101840.7;;;;-75
2022/08/26 10:59:24;;;;;;;;;;;;;;;24.97;51.44531;101838.3;;;;-74
2022/08/26 11:04:26;;;;;;;;;;;;;;;25;51.21777;101839.9;;;;-75
2022/08/26 11:09:32;;;;;;;;;;;;;;;24.98;51.12402;101841.8;;;;-74
2022/08/26 11:14:31;;;;;;;;;;;;;;;24.98;51.08887;101844.2;;;;-77
2022/08/26 11:19:38;;;;;;;;;;;;;;;24.97;51.05371;101838.6;;;;-75
2022/08/26 11:21:18;;;;;;;4.2;0.7;;;;;;;;;;;;;-76
2022/08/26 11:24:31;;;;;;;;;;;;;;;25.01;51.06934;101840.5;;;;-75
2022/08/26 11:29:30;;;;;;;;;;;;;;;25.13;50.97852;101838.1;;;;-75
2022/08/26 11:34:20;;;;;;;;;;;;;;;25.26;50.70508;101839.5;;;;-75
2022/08/26 11:39:23;;;;;;;;;;;;;;;25.36;50.50781;101848.7;;;;-76
2022/08/26 11:44:24;;;;;;;;;;;;;;;25.42;50.25098;101837.9;;;;-76
2022/08/26 11:49:20;;;;;;;;;;;;;;;25.47;49.97852;101843.9;;;;-77
2022/08/26 11:51:13;;;;;;;3.1;0.7;;;;;;;;;;;;;-75
2022/08/26 11:54:22;;;;;;;;;;;;;;;25.47;49.85059;101845;;;;-76
2022/08/26 11:59:22;;;;;;;;;;;;;;;25.39;49.80859;101843.5;;;;-75
2022/08/26 12:04:23;;;;;;;;;;;;;;;25.34;49.90625;101838.1;;;;-75
2022/08/26 12:09:24;;;;;;;;;;;;;;;25.34;50.02246;101834.4;;;;-76
2022/08/26 12:14:23;;;;;;;;;;;;;;;25.39;49.95898;101844.8;;;;-74
2022/08/26 12:19:30;;;;;;;;;;;;;;;25.39;49.85449;101845.5;;;;-75
2022/08/26 12:21:18;;;;;;;3.9;0.8;;;;;;;;;;;;;-75
2022/08/26 12:24:20;;;;;;;;;;;;;;;25.34;49.82617;101846.7;;;;-75
2022/08/26 12:29:28;;;;;;;;;;;;;;;25.24;49.86035;101844.2;;;;-76
2022/08/26 12:34:20;;;;;;;;;;;;;;;25.18;49.92383;101849.1;;;;-73
2022/08/26 12:39:28;;;;;;;;;;;;;;;25.1;49.95996;101848.7;;;;-75
2022/08/26 12:44:31;;;;;;;;;;;;;;;24.98;50.09766;101850.8;;;;-74
2022/08/26 12:49:23;;;;;;;;;;;;;;;24.85;50.22266;101853.3;;;;-74
2022/08/26 12:51:23;;;;;;;2.5;0.7;;;;;;;;;;;;;-75
2022/08/26 12:54:57;;;;;;;;;;;;;;;24.77;50.39648;101861.3;;;;-76
2022/08/26 12:59:27;;;;;;;;;;;;;;;24.72;50.50586;101856.9;;;;-75
2022/08/26 13:04:31;;;;;;;;;;;;;;;24.68;50.55957;101861.9;;;;-75
2022/08/26 13:09:34;;;;;;;;;;;;;;;24.68;50.58301;101857.7;;;;-76
2022/08/26 13:14:20;;;;;;;;;;;;;;;24.71;50.5625;101859.6;;;;-74
2022/08/26 13:19:21;;;;;;;;;;;;;;;24.71;50.49316;101862.8;;;;-77
2022/08/26 13:21:25;;;;;;;3.4;0.9;;;;;;;;;;;;;-74
2022/08/26 13:24:22;;;;;;;;;;;;;;;24.7;50.42285;101862.6;;;;-76
2022/08/26 13:29:20;;;;;;;;;;;;;;;24.67;50.41895;101857.6;;;;-75
2022/08/26 13:34:21;;;;;;;;;;;;;;;24.63;50.48535;101863.1;;;;-76
2022/08/26 13:39:20;;;;;;;;;;;;;;;24.61;50.44727;101865.6;;;;-75
2022/08/26 13:44:20;;;;;;;;;;;;;;;24.57;50.46582;101861.4;;;;-74
2022/08/26 13:49:20;;;;;;;;;;;;;;;24.55;50.4873;101860.5;;;;-75
2022/08/26 13:51:29;;;;;;;3.1;0.8;;;;;;;;;;;;;-75
2022/08/26 13:54:20;;;;;;;;;;;;;;;24.58;50.375;101861;;;;-75
2022/08/26 13:59:20;;;;;;;;;;;;;;;24.59;50.2041;101851.8;;;;-75
2022/08/26 14:04:20;;;;;;;;;;;;;;;24.65;50.10645;101858.7;;;;-76
2022/08/26 14:09:20;;;;;;;;;;;;;;;24.75;50.02441;101849.7;;;;-76
2022/08/26 14:14:20;;;;;;;;;;;;;;;24.81;49.75488;101851.2;;;;-75
2022/08/26 14:19:20;;;;;;;;;;;;;;;24.84;49.5166;101843.3;;;;-76
2022/08/26 14:21:32;;;;;;;3.3;0.8;;;;;;;;;;;;;-75
2022/08/26 14:24:21;;;;;;;;;;;;;;;24.85;49.3457;101842.8;;;;-76
2022/08/26 14:29:21;;;;;;;;;;;;;;;24.91;49.31641;101839.6;;;;-76
2022/08/26 14:34:20;;;;;;;;;;;;;;;24.97;49.12695;101842.1;;;;-75
2022/08/26 14:39:20;;;;;;;;;;;;;;;24.98;48.79297;101842;;;;-75
2022/08/26 14:44:20;;;;;;;;;;;;;;;25.04;48.81152;101839.2;;;;-75
2022/08/26 14:49:20;;;;;;;;;;;;;;;25.17;48.46777;101837.3;;;;-74
2022/08/26 14:51:35;;;;;;;3.2;0.9;;;;;;;;;;;;;-75
2022/08/26 14:54:20;;;;;;;;;;;;;;;25.29;48.21582;101838.8;;;;-76
2022/08/26 14:59:21;;;;;;;;;;;;;;;25.39;47.70605;101843.1;;;;-76
2022/08/26 15:04:20;;;;;;;;;;;;;;;25.39;47.48633;101840.1;;;;-75
2022/08/26 15:09:20;;;;;;;;;;;;;;;25.38;47.31152;101841.2;;;;-75
2022/08/26 15:14:20;;;;;;;;;;;;;;;25.39;47.17285;101836.3;;;;-76
2022/08/26 15:19:20;;;;;;;;;;;;;;;25.44;47.12109;101839.9;;;;-76
2022/08/26 15:21:39;;;;;;;3.8;0.9;;;;;;;;;;;;;-75
2022/08/26 15:24:21;;;;;;;;;;;;;;;25.47;46.95117;101837.7;;;;-75
2022/08/26 15:29:21;;;;;;;;;;;;;;;25.56;46.74023;101833.9;;;;-76
2022/08/26 15:34:20;;;;;;;;;;;;;;;25.77;46.54199;101835.3;;;;-76
2022/08/26 15:39:20;;;;;;;;;;;;;;;25.93;46.2002;101839.5;;;;-75
2022/08/26 15:44:20;;;;;;;;;;;;;;;25.98;46.21777;101835.5;;;;-75
2022/08/26 15:49:20;;;;;;;;;;;;;;;26.07;46.01855;101828.7;;;;-75
2022/08/26 15:51:45;;;;;;;3.3;1.2;;;;;;;;;;;;;-74
2022/08/26 15:54:21;;;;;;;;;;;;;;;26.19;45.43945;101826.7;;;;-74
2022/08/26 15:59:20;;;;;;;;;;;;;;;26.18;45.0332;101828.1;;;;-75
2022/08/26 16:04:20;;;;;;;;;;;;;;;26.03;44.96094;101820.7;;;;-75
2022/08/26 16:09:20;;;;;;;;;;;;;;;25.86;45.32617;101819.7;;;;-74
2022/08/26 16:14:20;;;;;;;;;;;;;;;25.68;45.6084;101818.4;;;;-75
2022/08/26 16:19:20;;;;;;;;;;;;;;;25.47;45.99121;101816.4;;;;-74
2022/08/26 16:21:49;;;;;;;4.5;1.2;;;;;;;;;;;;;-74
2022/08/26 16:24:20;;;;;;;;;;;;;;;25.24;46.10645;101825.6;;;;-75
2022/08/26 16:29:20;;;;;;;;;;;;;;;25.05;46.53809;101819.8;;;;-75
2022/08/26 16:34:20;;;;;;;;;;;;;;;24.87;46.73926;101815.9;;;;-75
2022/08/26 16:39:20;;;;;;;;;;;;;;;24.74;46.875;101816.4;;;;-75
2022/08/26 16:44:20;;;;;;;;;;;;;;;24.57;46.9375;101804;;;;-74
2022/08/26 16:49:20;;;;;;;;;;;;;;;24.42;47.06152;101807.1;;;;-74
2022/08/26 16:51:50;;;;;;;3.2;1.2;;;;;;;;;;;;;-74
2022/08/26 16:54:20;;;;;;;;;;;;;;;24.26;47.125;101812.6;;;;-75
2022/08/26 16:59:20;;;;;;;;;;;;;;;24.1;47.2002;101811.5;;;;-74
2022/08/26 17:04:20;;;;;;;;;;;;;;;23.94;47.40137;101815.5;;;;-74
2022/08/26 17:09:20;;;;;;;;;;;;;;;23.79;47.47852;101825.1;;;;-75
2022/08/26 17:14:21;;;;;;;;;;;;;;;23.65;47.19922;101833.4;;;;-75
2022/08/26 17:19:20;;;;;;;;;;;;;;;23.53;46.79492;101836.8;;;;-75
2022/08/26 17:21:54;;;;;;;3.7;1.5;;;;;;;;;;;;;-75
2022/08/26 17:24:20;;;;;;;;;;;;;;;23.39;46.84961;101836.5;;;;-75
2022/08/26 17:29:20;;;;;;;;;;;;;;;23.27;46.97461;101836.2;;;;-75
2022/08/26 17:34:20;;;;;;;;;;;;;;;23.15;46.89258;101839.4;;;;-75
2022/08/26 17:39:20;;;;;;;;;;;;;;;23.04;47.05469;101846.8;;;;-75
2022/08/26 17:44:20;;;;;;;;;;;;;;;22.93;47.25;101847.1;;;;-76
2022/08/26 17:49:20;;;;;;;;;;;;;;;22.82;47.41113;101850.3;;;;-75
2022/08/26 17:52:00;;;;;;;4.1;1.4;;;;;;;;;;;;;-74
2022/08/26 17:54:20;;;;;;;;;;;;;;;22.7;47.60352;101854.6;;;;-75
2022/08/26 17:59:20;;;;;;;;;;;;;;;22.56;47.7041;101860.3;;;;-74
2022/08/26 18:04:20;;;;;;;;;;;;;;;22.39;47.97363;101856.9;;;;-75
2022/08/26 18:09:20;;;;;;;;;;;;;;;22.22;48.19531;101862.2;;;;-75
2022/08/26 18:14:20;;;;;;;;;;;;;;;22.03;48.39355;101872.4;;;;-75
2022/08/26 18:19:20;;;;;;;;;;;;;;;21.84;48.625;101868.8;;;;-75
2022/08/26 18:22:01;;;;;;;3.1;1;;;;;;;;;;;;;-76
2022/08/26 18:24:20;;;;;;;;;;;;;;;21.66;48.73242;101873.2;;;;-76
2022/08/26 18:29:20;;;;;;;;;;;;;;;21.5;49.03418;101881.4;;;;-75
2022/08/26 18:34:20;;;;;;;;;;;;;;;21.31;49.40332;101884.9;;;;-73
2022/08/26 18:39:20;;;;;;;;;;;;;;;21.14;49.60254;101885.6;;;;-75
2022/08/26 18:44:22;;;;;;;;;;;;;;;20.97;49.9375;101892.7;;;;-76
2022/08/26 18:49:21;;;;;;;;;;;;;;;20.81;50.06836;101888.2;;;;-75
2022/08/26 18:52:04;;;;;;;3;1.2;;;;;;;;;;;;;-75
2022/08/26 18:54:20;;;;;;;;;;;;;;;20.64;50.3916;101887.5;;;;-75
2022/08/26 18:59:20;;;;;;;;;;;;;;;20.49;50.63672;101888.8;;;;-75
2022/08/26 19:04:20;;;;;;;;;;;;;;;20.35;50.72363;101897;;;;-73
2022/08/26 19:09:20;;;;;;;;;;;;;;;20.19;50.93359;101909.3;;;;-75
2022/08/26 19:14:20;;;;;;;;;;;;;;;20.07;51.33105;101914.1;;;;-76
2022/08/26 19:19:20;;;;;;;;;;;;;;;19.92;51.43848;101911.7;;;;-74
2022/08/26 19:22:07;;;;;;;2.3;1.1;;;;;;;;;;;;;-77
2022/08/26 19:24:20;;;;;;;;;;;;;;;19.76;51.4209;101910.7;;;;-77
2022/08/26 19:29:20;;;;;;;;;;;;;;;19.64;51.79395;101909;;;;-77
2022/08/26 19:34:20;;;;;;;;;;;;;;;19.51;51.79004;101911.8;;;;-75
2022/08/26 19:39:20;;;;;;;;;;;;;;;19.38;52.18359;101917.5;;;;-76
2022/08/26 19:45:06;;;;;;;;;;;;;;;19.28;52.29785;101921;;;;-76
2022/08/26 19:49:22;;;;;;;;;;;;;;;19.17;52.24023;101919.3;;;;-74
2022/08/26 19:52:10;;;;;;;3.5;1.2;;;;;;;;;;;;;-76
2022/08/26 19:54:21;;;;;;;;;;;;;;;19.05;52.41992;101927;;;;-75
2022/08/26 19:59:20;;;;;;;;;;;;;;;18.96;52.61328;101924.3;;;;-76
2022/08/26 20:04:20;;;;;;;;;;;;;;;18.86;52.76074;101923;;;;-74
2022/08/26 20:09:20;;;;;;;;;;;;;;;18.76;52.79395;101927;;;;-74
2022/08/26 20:14:20;;;;;;;;;;;;;;;18.66;52.90723;101918;;;;-74
2022/08/26 20:22:13;;;;;;;3.1;1.1;;;;;;;;;;;;;-73
2022/08/26 20:24:22;;;;;;;;;;;;;;;18.47;53.19043;101915.8;;;;-76
2022/08/26 20:29:20;;;;;;;;;;;;;;;18.37;53.11133;101913.4;;;;-74
2022/08/26 20:34:21;;;;;;;;;;;;;;;18.26;53.36914;101916.8;;;;-76
2022/08/26 20:39:20;;;;;;;;;;;;;;;18.18;53.63281;101919.3;;;;-74
2022/08/26 20:44:20;;;;;;;;;;;;;;;18.11;53.51074;101924.7;;;;-74
2022/08/26 20:49:20;;;;;;;;;;;;;;;18.04;53.76367;101919.8;;;;-74
2022/08/26 20:52:15;;;;;;;2.6;1.2;;;;;;;;;;;;;-75
2022/08/26 20:54:20;;;;;;;;;;;;;;;17.95;53.75293;101913.3;;;;-74
2022/08/26 20:59:20;;;;;;;;;;;;;;;17.87;53.95898;101912.8;;;;-75
2022/08/26 21:04:21;;;;;;;;;;;;;;;17.8;54.00781;101913.3;;;;-74
2022/08/26 21:09:20;;;;;;;;;;;;;;;17.73;54.14453;101910;;;;-75
2022/08/26 21:14:21;;;;;;;;;;;;;;;17.65;54.2832;101909.2;;;;-76
2022/08/26 21:19:21;;;;;;;;;;;;;;;17.58;54.29688;101912.5;;;;-74
2022/08/26 21:22:17;;;;;;;5.4;1.4;;;;;;;;;;;;;-74
2022/08/26 21:24:20;;;;;;;;;;;;;;;17.53;54.38184;101908.6;;;;-75
2022/08/26 21:29:20;;;;;;;;;;;;;;;17.47;54.50879;101908.7;;;;-76
2022/08/26 21:34:20;;;;;;;;;;;;;;;17.41;54.43555;101914.9;;;;-75
2022/08/26 21:39:20;;;;;;;;;;;;;;;17.34;54.57324;101916.7;;;;-75
2022/08/26 21:44:20;;;;;;;;;;;;;;;17.29;54.54492;101915.1;;;;-75
2022/08/26 21:49:20;;;;;;;;;;;;;;;17.23;54.80859;101914.5;;;;-75
2022/08/26 21:52:20;;;;;;;4.5;1.6;;;;;;;;;;;;;-74
2022/08/26 21:54:20;;;;;;;;;;;;;;;17.16;54.7207;101913.3;;;;-75
2022/08/26 21:59:20;;;;;;;;;;;;;;;17.12;54.80762;101915.4;;;;-75
2022/08/26 22:04:20;;;;;;;;;;;;;;;17.05;54.86719;101914.1;;;;-76
2022/08/26 22:09:21;;;;;;;;;;;;;;;17.01;54.81543;101911.4;;;;-74
2022/08/26 22:14:21;;;;;;;;;;;;;;;16.95;55.02344;101918;;;;-75
2022/08/26 22:19:20;;;;;;;;;;;;;;;16.91;55.06348;101917.9;;;;-75
2022/08/26 22:22:22;;;;;;;3.5;1.4;;;;;;;;;;;;;-75
2022/08/26 22:24:20;;;;;;;;;;;;;;;16.87;55.03516;101927.7;;;;-74
2022/08/26 22:29:20;;;;;;;;;;;;;;;16.83;55.14355;101926;;;;-74
2022/08/26 22:34:21;;;;;;;;;;;;;;;16.83;55.14453;101930;;;;-75
2022/08/26 22:39:20;;;;;;;;;;;;;;;16.82;55.09668;101926.9;;;;-75
2022/08/26 22:44:20;;;;;;;;;;;;;;;16.79;55.19531;101925.8;;;;-74
2022/08/26 22:49:20;;;;;;;;;;;;;;;16.74;55.15527;101925;;;;-75
2022/08/26 22:52:24;;;;;;;3.3;1.5;;;;;;;;;;;;;-75
2022/08/26 22:54:20;;;;;;;;;;;;;;;16.7;55.12891;101924.5;;;;-75
2022/08/26 22:59:19;;;;;;;;;;;;;;;16.66;55.30371;101915;;;;-74
2022/08/26 23:04:19;;;;;;;;;;;;;;;16.62;55.26465;101910.6;;;;-74
2022/08/26 23:09:20;;;;;;;;;;;;;;;16.58;55.24902;101910.6;;;;-74
2022/08/26 23:14:20;;;;;;;;;;;;;;;16.49;55.42871;101906.1;;;;-75
2022/08/26 23:19:21;;;;;;;;;;;;;;;16.46;55.50488;101908.1;;;;-74
2022/08/26 23:22:25;;;;;;;3.4;1.4;;;;;;;;;;;;;-74
2022/08/26 23:24:20;;;;;;;;;;;;;;;16.43;55.50098;101908.6;;;;-73
2022/08/26 23:29:19;;;;;;;;;;;;;;;16.39;55.57422;101905.5;;;;-75
2022/08/26 23:39:20;;;;;;;;;;;;;;;16.31;55.76855;101905.2;;;;-76
2022/08/26 23:44:20;;;;;;;;;;;;;;;16.26;55.77344;101898.8;;;;-75
2022/08/26 23:49:19;;;;;;;;;;;;;;;16.22;55.76855;101893.5;;;;-73
2022/08/26 23:54:19;;;;;;;;;;;;;;;16.18;55.93359;101886.4;;;;-76
2022/08/26 23:59:20;;;;;;;;;;;;;;;16.12;55.93555;101891;;;;-75
